Weather at Novo Mesto Airport

Public forecast

Using degrees Celsius for public forecast. Weather courtesy of forecast.io.

Closest aviation weather report (METAR) to Novo Mesto Airport

Closest report is Cerklje Airport, 18.3 nm (33.8 km) ENE. Retrieved 2020/10/29 13:30 UTC (17 minutes ago):

LJCE 291330Z 30008KT 9999 FEW010 SCT130 14/11 Q1018

Closest aviation forecast (TAF) to Novo Mesto Airport

Closest forecast is Ljubljana Jože Pučnik Airport, 36.9 nm (68.4 km) NW. Retrieved 2020/10/29 12:05 UTC (2 hours ago):

TAF LJLJ 291100Z 2912/3012 VRB02KT 9999 FEW030 BKN080